Time;durP1;ratioP1;P1;durP2;ratioP2;P2;SDS_P1;SDS_P2;PMS_P1;PMS_P2;Temp;Humidity;BMP_temperature;BMP_pressure;BME280_temperature;BME280_humidity;BME280_pressure;Samples;Min_cycle;Max_cycle;Signal;HPM_P1;HPM_P2
2022/05/23 00:01:43;;;;;;;4.95;0.60;;;;;;;18.25;63.45;100256.13;7391453;19;20018;-69
2022/05/23 00:04:10;;;;;;;5.05;0.70;;;;;;;18.22;62.97;100253.91;7392190;19;20405;-68
2022/05/23 00:06:37;;;;;;;4.93;0.68;;;;;;;18.19;63.83;100251.66;7391377;19;20670;-68
2022/05/23 00:09:04;;;;;;;2.15;0.50;;;;;;;18.19;63.10;100246.31;7394394;19;20015;-68
2022/05/23 00:11:32;;;;;;;3.35;0.50;;;;;;;18.16;62.83;100234.28;7389267;19;20013;-68
2022/05/23 00:16:36;;;;;;;4.32;0.68;;;;;;;18.05;64.07;100226.16;7390900;19;20667;-69
2022/05/23 00:19:04;;;;;;;4.13;0.43;;;;;;;18.04;63.13;100227.19;7392182;19;20034;-70
2022/05/23 00:21:32;;;;;;;4.20;0.70;;;;;;;18.02;62.97;100222.09;7389030;19;20333;-68
2022/05/23 00:23:59;;;;;;;4.90;0.65;;;;;;;17.99;62.92;100224.34;7387678;19;20010;-69
2022/05/23 00:26:26;;;;;;;3.33;0.82;;;;;;;17.95;63.74;100221.31;7390481;19;20011;-69
2022/05/23 00:28:53;;;;;;;5.38;0.50;;;;;;;17.94;63.00;100233.81;7392293;19;20018;-69
2022/05/23 00:31:20;;;;;;;4.28;0.50;;;;;;;17.94;62.14;100225.00;7393332;19;20068;-67
2022/05/23 00:36:27;;;;;;;8.55;0.50;;;;;;;17.94;63.50;100220.50;7390391;19;20451;-69
2022/05/23 00:38:54;;;;;;;2.55;0.55;;;;;;;17.93;62.40;100212.72;7390073;19;20015;-70
2022/05/23 00:44:06;;;;;;;2.45;0.50;;;;;;;17.88;61.50;100204.56;7389661;19;20344;-69
2022/05/23 00:46:34;;;;;;;4.78;0.75;;;;;;;17.83;61.62;100202.56;7388406;19;20006;-69
2022/05/23 00:49:04;;;;;;;4.88;0.55;;;;;;;17.80;62.49;100195.00;7387398;19;20094;-68
2022/05/23 00:51:34;;;;;;;5.85;0.50;;;;;;;17.80;61.76;100212.81;7387083;19;20018;-69
2022/05/23 00:54:05;;;;;;;4.53;0.70;;;;;;;17.80;61.22;100197.69;7393342;19;20066;-69
2022/05/23 00:56:43;;;;;;;3.88;0.50;;;;;;;17.77;61.49;100197.28;7387277;19;20010;-69
2022/05/23 00:59:27;;;;;;;4.22;0.40;;;;;;;17.75;61.68;100181.53;7386929;19;20015;-68
2022/05/23 01:01:55;;;;;;;2.28;0.40;;;;;;;17.71;63.29;100172.34;7391251;19;20106;-69
2022/05/23 01:04:23;;;;;;;5.55;0.70;;;;;;;17.73;61.81;100169.47;7386644;19;20015;-69
2022/05/23 01:06:50;;;;;;;2.50;0.40;;;;;;;17.74;61.23;100163.13;7387598;19;20007;-69
2022/05/23 01:09:20;;;;;;;2.83;0.35;;;;;;;17.71;61.46;100155.56;7389403;19;20017;-69
2022/05/23 01:14:14;;;;;;;1.85;0.40;;;;;;;17.68;62.99;100153.31;7389178;19;20114;-69
2022/05/23 01:16:41;;;;;;;2.58;0.60;;;;;;;17.72;61.91;100150.03;7391509;19;20369;-68
2022/05/23 01:19:08;;;;;;;1.73;0.45;;;;;;;17.72;61.60;100158.03;7390950;19;20019;-68
2022/05/23 01:21:55;;;;;;;3.40;0.73;;;;;;;17.68;61.72;100143.50;7390847;19;20037;-68
2022/05/23 01:24:37;;;;;;;2.28;0.40;;;;;;;17.63;61.55;100142.50;7388378;19;20495;-67
2022/05/23 01:27:09;;;;;;;5.27;0.40;;;;;;;17.63;62.41;100137.19;7390003;19;20015;-68
2022/05/23 01:29:37;;;;;;;6.93;0.75;;;;;;;17.62;61.86;100133.75;7390465;19;20262;-67
2022/05/23 01:32:05;;;;;;;3.80;0.52;;;;;;;17.62;61.68;100136.41;7388865;19;20366;-69
2022/05/23 01:34:32;;;;;;;1.90;0.40;;;;;;;17.61;61.68;100133.94;7389378;19;20466;-68
2022/05/23 01:37:00;;;;;;;2.78;0.40;;;;;;;17.59;61.90;100123.50;7387516;19;20468;-68
2022/05/23 01:39:27;;;;;;;2.90;0.40;;;;;;;17.56;61.81;100121.25;7391077;19;20034;-69
2022/05/23 01:41:55;;;;;;;3.90;0.50;;;;;;;17.54;61.38;100124.13;7389996;19;20018;-68
2022/05/23 01:44:22;;;;;;;2.75;0.43;;;;;;;17.51;61.22;100121.91;7385373;19;20015;-68
2022/05/23 01:46:49;;;;;;;1.85;0.40;;;;;;;17.49;60.91;100115.16;7386860;19;20483;-68
2022/05/23 01:49:16;;;;;;;2.65;0.43;;;;;;;17.49;61.13;100107.19;7387102;19;20011;-68
2022/05/23 01:51:44;;;;;;;4.00;0.40;;;;;;;17.45;61.53;100113.97;7386080;19;20006;-68
2022/05/23 01:54:12;;;;;;;4.53;0.63;;;;;;;17.42;61.30;100109.88;7386739;19;20038;-68
2022/05/23 01:56:39;;;;;;;2.50;0.30;;;;;;;17.40;61.83;100113.78;7389301;19;20532;-68
2022/05/23 02:01:42;;;;;;;2.63;0.50;;;;;;;17.36;61.40;100113.41;7390416;19;20034;-68
2022/05/23 02:04:10;;;;;;;3.13;0.50;;;;;;;17.30;61.27;100113.44;7389993;19;20035;-67
2022/05/23 02:06:37;;;;;;;1.88;0.40;;;;;;;17.29;61.61;100111.81;7385444;19;20010;-67
2022/05/23 02:09:04;;;;;;;1.95;0.50;;;;;;;17.29;61.79;100107.31;7389628;19;20028;-68
2022/05/23 02:11:31;;;;;;;2.92;0.50;;;;;;;17.28;62.22;100111.00;7393387;19;20014;-68
2022/05/23 02:13:58;;;;;;;3.72;0.35;;;;;;;17.28;61.86;100110.19;7398749;19;20018;-67
2022/05/23 02:16:27;;;;;;;4.18;0.50;;;;;;;17.28;61.62;100091.56;7393018;19;20559;-68
2022/05/23 02:18:55;;;;;;;3.53;0.40;;;;;;;17.25;61.29;100098.16;7397032;19;20094;-69
2022/05/23 02:21:21;;;;;;;3.15;0.40;;;;;;;17.23;61.51;100100.19;7391929;19;20019;-69
2022/05/23 02:23:48;;;;;;;2.00;0.40;;;;;;;17.20;61.47;100095.31;7393172;19;20009;-68
2022/05/23 02:26:15;;;;;;;3.17;0.40;;;;;;;17.20;61.75;100105.94;7395620;19;20018;-68
2022/05/23 02:28:42;;;;;;;3.25;0.40;;;;;;;17.18;62.14;100094.69;7393685;19;20006;-70
2022/05/23 02:31:10;;;;;;;2.28;0.45;;;;;;;17.19;62.01;100092.84;7395690;19;20014;-67
2022/05/23 02:33:37;;;;;;;3.60;0.40;;;;;;;17.17;61.92;100082.44;7397678;19;20034;-67
2022/05/23 02:36:04;;;;;;;1.95;0.50;;;;;;;17.13;61.96;100086.53;7392599;19;20461;-68
2022/05/23 02:38:31;;;;;;;5.35;0.43;;;;;;;17.09;62.58;100080.84;7397301;19;20011;-68
2022/05/23 02:40:59;;;;;;;4.13;0.60;;;;;;;17.07;62.23;100072.25;7393935;19;20003;-68
2022/05/23 02:43:27;;;;;;;2.45;0.50;;;;;;;17.04;62.24;100070.03;7391973;19;20006;-69
2022/05/23 02:45:54;;;;;;;2.75;0.40;;;;;;;16.99;62.32;100072.53;7391886;19;20340;-70
2022/05/23 02:48:21;;;;;;;3.03;0.40;;;;;;;16.98;62.56;100070.06;7392560;19;20010;-69
2022/05/23 02:50:49;;;;;;;3.10;0.50;;;;;;;16.92;62.11;100068.25;7392783;19;20015;-67
2022/05/23 02:53:16;;;;;;;1.88;0.40;;;;;;;16.87;62.63;100060.09;7390118;19;20019;-69
2022/05/23 02:55:43;;;;;;;3.30;0.63;;;;;;;16.86;62.76;100077.09;7392665;19;20015;-69
2022/05/23 02:58:10;;;;;;;2.20;0.40;;;;;;;16.85;62.70;100064.84;7393462;19;20006;-67
2022/05/23 03:00:38;;;;;;;5.25;0.50;;;;;;;16.86;62.94;100074.44;7390684;19;20011;-70
2022/05/23 03:03:08;;;;;;;5.32;0.40;;;;;;;16.86;63.10;100066.47;7395886;19;20014;-67
2022/05/23 03:05:39;;;;;;;4.93;0.50;;;;;;;16.83;62.84;100058.91;7389976;19;20413;-68
2022/05/23 03:08:07;;;;;;;;;;;;;;;16.84;63.81;100063.19;7396024;19;20015;-68
2022/05/23 03:10:35;;;;;;;2.83;0.40;;;;;;;16.82;63.66;100063.41;7394496;19;19919;-70
2022/05/23 03:13:03;;;;;;;4.30;0.43;;;;;;;16.81;63.49;100068.97;7395834;19;20030;-67
2022/05/23 03:15:30;;;;;;;5.13;0.60;;;;;;;16.80;63.09;100068.13;7394165;19;20007;-68
2022/05/23 03:17:57;;;;;;;4.15;0.40;;;;;;;16.77;63.20;100060.56;7391759;19;20408;-68
2022/05/23 03:20:25;;;;;;;2.22;0.50;;;;;;;16.73;63.22;100058.56;7394130;19;20022;-70
2022/05/23 03:28:04;;;;;;;2.33;0.40;;;;;;;16.82;63.20;100028.03;7393879;19;20039;-68
2022/05/23 03:30:32;;;;;;;4.32;0.40;;;;;;;16.80;63.01;100033.59;7392054;19;20034;-69
2022/05/23 03:33:00;;;;;;;4.00;0.38;;;;;;;16.82;63.30;100039.50;7392996;19;20018;-68
2022/05/23 03:35:30;;;;;;;1.80;0.60;;;;;;;16.83;62.97;100019.88;7393139;19;20018;-67
2022/05/23 03:37:57;;;;;;;3.00;0.40;;;;;;;16.86;64.11;100016.81;7393604;19;20014;-69
2022/05/23 03:40:25;;;;;;;1.38;0.47;;;;;;;16.88;63.67;100013.91;7389844;19;20133;-68
2022/05/23 03:42:52;;;;;;;3.30;0.40;;;;;;;16.91;63.08;100013.50;7396857;19;20011;-70
2022/05/23 03:45:19;;;;;;;1.90;0.40;;;;;;;16.92;62.83;100013.25;7391053;19;20033;-67
2022/05/23 03:47:48;;;;;;;1.52;0.35;;;;;;;16.91;63.24;100005.53;7394379;19;20035;-67
2022/05/23 03:50:16;;;;;;;2.13;0.40;;;;;;;16.88;63.11;100012.06;7394100;19;20015;-69
2022/05/23 03:52:44;;;;;;;5.75;0.50;;;;;;;16.83;63.46;100001.25;7391012;19;20051;-67
2022/05/23 03:55:11;;;;;;;3.50;0.75;;;;;;;16.84;63.89;100012.72;7392253;19;20561;-68
2022/05/23 03:57:38;;;;;;;2.45;0.40;;;;;;;16.85;63.80;100009.03;7391938;19;20030;-68
2022/05/23 04:00:07;;;;;;;2.67;0.40;;;;;;;16.83;63.44;99997.78;7390333;19;20054;-67
2022/05/23 04:02:35;;;;;;;3.38;0.50;;;;;;;16.77;63.72;99998.63;7391942;19;20011;-71
2022/05/23 04:05:04;;;;;;;0.98;0.30;;;;;;;16.74;64.01;99986.59;7389700;19;20022;-68
2022/05/23 04:07:49;;;;;;;2.53;0.50;;;;;;;16.75;64.30;99982.13;7391395;19;20007;-69
2022/05/23 04:10:17;;;;;;;3.25;0.70;;;;;;;16.80;64.18;99987.59;7390576;19;20026;-67
2022/05/23 04:12:45;;;;;;;1.48;0.40;;;;;;;16.84;64.32;99986.97;7391600;19;20011;-68
2022/05/23 04:15:13;;;;;;;0.95;0.30;;;;;;;16.88;64.16;99990.81;7389911;19;20022;-68
2022/05/23 04:17:40;;;;;;;2.05;0.40;;;;;;;16.90;63.97;99994.06;7389424;19;20011;-69
2022/05/23 04:20:09;;;;;;;4.43;0.70;;;;;;;16.87;63.79;99997.16;7394498;19;20026;-69
2022/05/23 04:22:37;;;;;;;4.45;0.50;;;;;;;16.87;63.48;99994.50;7393941;19;20014;-70
2022/05/23 04:25:06;;;;;;;2.20;0.30;;;;;;;16.89;64.13;100002.25;7392806;19;20039;-68
2022/05/23 04:27:34;;;;;;;3.67;0.50;;;;;;;16.81;63.88;99995.34;7390952;19;20010;-67
2022/05/23 04:30:03;;;;;;;1.42;0.40;;;;;;;16.80;64.52;99990.25;7390974;19;20018;-69
2022/05/23 04:37:48;;;;;;;7.18;0.40;;;;;;;16.61;64.79;99984.00;7390921;19;20466;-68
2022/05/23 04:40:22;;;;;;;3.58;1.05;;;;;;;16.63;66.19;99980.13;7390843;19;20446;-70
2022/05/23 04:42:49;;;;;;;1.08;0.43;;;;;;;16.62;65.65;99978.50;7391017;19;20421;-69
2022/05/23 04:45:17;;;;;;;1.60;0.40;;;;;;;16.61;65.12;99973.38;7387529;19;20098;-68
2022/05/23 04:50:21;;;;;;;2.38;0.43;;;;;;;16.61;64.88;99973.38;7391681;19;20015;-69
2022/05/23 04:52:48;;;;;;;2.55;0.40;;;;;;;16.60;65.27;99979.75;7391358;19;20700;-68
2022/05/23 04:55:15;;;;;;;3.95;0.47;;;;;;;16.61;65.42;99981.34;7389169;19;20023;-68
2022/05/23 04:57:42;;;;;;;2.47;0.43;;;;;;;16.62;65.83;99977.69;7388204;19;20002;-68
2022/05/23 05:00:11;;;;;;;3.25;0.60;;;;;;;16.59;65.78;99978.13;7389960;19;20014;-68
2022/05/23 05:02:38;;;;;;;2.67;0.40;;;;;;;16.60;65.67;99979.75;7394306;19;20369;-69
2022/05/23 05:05:15;;;;;;;1.83;0.50;;;;;;;16.59;65.81;99989.56;7386796;19;20006;-70
2022/05/23 05:07:42;;;;;;;2.72;0.70;;;;;;;16.60;65.91;99969.94;7388695;19;19999;-67
2022/05/23 05:10:10;;;;;;;2.22;0.40;;;;;;;16.61;66.02;99984.00;7389473;19;20478;-69
2022/05/23 05:12:38;;;;;;;5.90;0.60;;;;;;;16.61;67.32;99981.34;7387637;19;20045;-67
2022/05/23 05:15:04;;;;;;;1.52;0.40;;;;;;;16.60;66.41;99979.75;7389421;19;20365;-67
2022/05/23 05:17:32;;;;;;;3.78;0.40;;;;;;;16.63;65.95;99982.78;7387157;19;20018;-67
2022/05/23 05:19:59;;;;;;;5.63;0.50;;;;;;;16.62;66.24;99983.81;7391224;19;20010;-67
2022/05/23 05:22:26;;;;;;;3.13;0.43;;;;;;;16.62;66.37;99983.00;7389560;19;20017;-69
2022/05/23 05:24:53;;;;;;;1.65;0.50;;;;;;;16.60;66.65;99980.56;7389976;19;20472;-69
2022/05/23 05:27:20;;;;;;;2.28;0.60;;;;;;;16.56;66.92;99976.66;7387389;19;20014;-69
2022/05/23 05:29:48;;;;;;;3.85;0.50;;;;;;;16.57;66.77;99970.31;7388225;19;20039;-67
2022/05/23 05:32:22;;;;;;;2.60;0.57;;;;;;;16.63;66.23;99972.16;7390235;19;20479;-67
2022/05/23 05:35:12;;;;;;;1.63;0.50;;;;;;;16.65;66.39;99974.63;7391314;19;20006;-68
2022/05/23 05:37:45;;;;;;;3.70;0.50;;;;;;;16.66;66.23;99965.59;7392565;19;20022;-67
2022/05/23 05:40:16;;;;;;;1.58;0.40;;;;;;;16.69;66.34;99978.47;7388346;19;20042;-68
2022/05/23 05:42:48;;;;;;;3.33;2.15;;;;;;;16.66;67.76;99970.91;7388031;19;20106;-67
2022/05/23 05:45:17;;;;;;;3.50;0.60;;;;;;;16.66;68.00;99963.75;7387903;19;20011;-68
2022/05/23 05:47:47;;;;;;;4.95;0.70;;;;;;;16.67;67.06;99968.03;7396206;19;20393;-68
2022/05/23 05:50:41;;;;;;;2.50;0.50;;;;;;;16.67;66.76;99959.25;7397446;19;20102;-68
2022/05/23 05:53:11;;;;;;;1.77;0.57;;;;;;;16.66;67.09;99961.09;7397641;19;20017;-68
2022/05/23 05:55:40;;;;;;;3.55;0.50;;;;;;;16.68;66.96;99959.06;7397347;19;20030;-69
2022/05/23 05:58:08;;;;;;;4.18;0.52;;;;;;;16.68;66.90;99942.28;7399057;19;20502;-69
2022/05/23 06:00:36;;;;;;;2.58;0.40;;;;;;;16.65;67.02;99938.25;7395497;19;20025;-70
2022/05/23 06:03:03;;;;;;;3.22;0.47;;;;;;;16.67;67.29;99936.16;7395616;19;20018;-68
2022/05/23 06:11:23;;;;;;;1.60;0.38;;;;;;;16.63;67.26;99934.16;7392511;19;20015;-68
2022/05/23 06:13:31;;;;;;;5.25;0.70;;;;;;;16.56;68.20;99922.72;7399289;19;20042;-68
2022/05/23 06:15:58;;;;;;;2.92;0.50;;;;;;;16.57;70.02;99930.47;7396539;19;20014;-69
2022/05/23 06:18:25;;;;;;;2.80;0.70;;;;;;;16.57;69.41;99925.16;7395199;19;20006;-68
2022/05/23 06:20:52;;;;;;;4.10;0.50;;;;;;;16.58;69.58;99924.19;7394296;19;20015;-70
2022/05/23 06:23:20;;;;;;;3.20;0.45;;;;;;;16.64;69.75;99920.66;7398672;19;20015;-68
2022/05/23 06:25:47;;;;;;;1.17;0.40;;;;;;;16.66;70.08;99910.63;7393756;19;20019;-68
2022/05/23 06:28:14;;;;;;;2.17;0.35;;;;;;;16.70;70.06;99911.03;7398900;19;20052;-68
2022/05/23 06:30:42;;;;;;;1.55;0.50;;;;;;;16.72;70.19;99908.94;7392582;19;20353;-68
2022/05/23 06:33:09;;;;;;;4.60;0.50;;;;;;;16.77;70.04;99901.16;7394250;19;20015;-68
2022/05/23 06:35:36;;;;;;;3.22;0.50;;;;;;;16.78;70.49;99901.97;7392509;19;20385;-68
2022/05/23 06:38:03;;;;;;;4.78;0.50;;;;;;;16.79;70.64;99896.44;7397597;19;20006;-69
2022/05/23 06:40:30;;;;;;;2.15;0.50;;;;;;;16.79;70.45;99901.75;7394165;19;20034;-70
2022/05/23 06:42:58;;;;;;;3.00;0.50;;;;;;;16.83;70.38;99899.47;7392702;19;20030;-70
2022/05/23 06:45:24;;;;;;;3.20;0.55;;;;;;;16.87;70.55;99892.69;7389797;19;20015;-68
2022/05/23 06:47:51;;;;;;;3.75;0.80;;;;;;;16.91;71.28;99884.09;7397910;19;20107;-68
2022/05/23 06:50:18;;;;;;;2.08;0.57;;;;;;;16.94;70.37;99875.69;7396541;19;20038;-68
2022/05/23 06:52:46;;;;;;;1.95;0.60;;;;;;;16.97;70.56;99869.09;7394459;19;20031;-68
2022/05/23 06:55:13;;;;;;;3.88;0.60;;;;;;;16.92;70.43;99864.44;7392097;19;20014;-66
2022/05/23 06:57:40;;;;;;;5.82;0.50;;;;;;;16.89;70.97;99862.22;7388351;19;20138;-68
2022/05/23 07:00:09;;;;;;;3.28;0.70;;;;;;;16.90;71.26;99852.41;7389593;19;20009;-69
2022/05/23 07:02:38;;;;;;;6.50;1.15;;;;;;;16.89;71.52;99848.13;7391909;19;20014;-69
2022/05/23 07:12:58;;;;;;;7.10;0.98;;;;;;;17.04;71.60;99849.41;7393856;19;20011;-69
2022/05/23 07:15:27;;;;;;;3.83;0.98;;;;;;;17.07;71.34;99846.31;7394360;19;20010;-67
2022/05/23 07:17:55;;;;;;;5.32;1.17;;;;;;;17.11;71.45;99846.69;7387779;19;20014;-67
2022/05/23 07:20:22;;;;;;;5.18;1.27;;;;;;;17.17;71.73;99839.69;7391707;19;20007;-68
2022/05/23 07:22:48;;;;;;;5.03;1.25;;;;;;;17.21;71.58;99840.88;7391518;19;20006;-70
2022/05/23 07:25:16;;;;;;;8.38;2.53;;;;;;;17.24;70.86;99821.81;7392553;19;20047;-69
2022/05/23 07:27:43;;;;;;;7.35;2.40;;;;;;;17.22;70.66;99826.56;7391157;19;20010;-69
2022/05/23 07:30:11;;;;;;;8.50;1.35;;;;;;;17.19;71.01;99825.13;7391318;19;20011;-68
2022/05/23 07:32:38;;;;;;;6.60;1.30;;;;;;;17.23;70.90;99821.00;7392329;19;20620;-66
2022/05/23 07:35:04;;;;;;;3.63;1.33;;;;;;;17.23;70.74;99823.66;7391035;19;20014;-69
2022/05/23 07:37:31;;;;;;;4.10;1.13;;;;;;;17.22;70.35;99822.03;7394584;19;20011;-68
2022/05/23 07:42:32;;;;;;;7.32;1.13;;;;;;;17.23;70.64;99813.00;7392005;19;20020;-68
2022/05/23 07:45:00;;;;;;;4.95;1.35;;;;;;;17.28;70.50;99821.13;7389462;19;20021;-69
2022/05/23 07:47:28;;;;;;;6.03;1.02;;;;;;;17.29;70.79;99817.44;7388531;19;20472;-69
2022/05/23 07:49:55;;;;;;;4.25;1.10;;;;;;;17.33;71.52;99815.16;7390801;19;20007;-70
2022/05/23 07:52:22;;;;;;;4.03;0.98;;;;;;;17.38;71.53;99818.78;7387664;19;20021;-68
2022/05/23 08:02:40;;;;;;;3.67;1.00;;;;;;;17.43;70.27;99797.66;7385901;19;20030;-68
2022/05/23 08:05:08;;;;;;;8.18;1.13;;;;;;;17.44;70.38;99801.94;7389018;19;20029;-70
2022/05/23 08:07:34;;;;;;;5.35;1.27;;;;;;;17.47;70.37;99782.06;7386067;19;20009;-67
2022/05/23 08:10:02;;;;;;;3.05;1.10;;;;;;;17.46;70.34;99789.25;7390304;19;20022;-68
2022/05/23 08:12:30;;;;;;;4.30;0.80;;;;;;;17.46;70.20;99777.78;7388181;19;20010;-68
2022/05/23 08:14:58;;;;;;;3.97;1.08;;;;;;;17.46;70.16;99783.09;7388618;19;20007;-70
2022/05/23 08:17:25;;;;;;;8.10;1.83;;;;;;;17.51;74.46;99773.41;7390118;19;20026;-70
2022/05/23 08:19:54;;;;;;;8.23;1.40;;;;;;;17.56;73.25;99778.06;7389985;19;20376;-69
2022/05/23 08:22:24;;;;;;;4.07;0.77;;;;;;;17.67;70.69;99779.19;7388020;19;20010;-71
2022/05/23 08:24:51;;;;;;;5.13;1.52;;;;;;;17.72;70.12;99768.69;7388217;19;20015;-69
2022/05/23 08:27:26;;;;;;;13.27;1.50;;;;;;;17.76;70.08;99769.84;7385518;19;20003;-66
2022/05/23 08:29:54;;;;;;;6.13;1.10;;;;;;;17.82;70.95;99758.31;7387284;19;20018;-67
2022/05/23 08:32:21;;;;;;;4.95;0.80;;;;;;;17.89;70.79;99759.00;7386864;19;20015;-69
2022/05/23 08:34:49;;;;;;;5.78;1.08;;;;;;;17.95;70.02;99758.09;7387533;19;20076;-70
2022/05/23 08:37:16;;;;;;;9.20;5.40;;;;;;;17.99;69.72;99756.59;7386334;19;20032;-71
2022/05/23 08:39:43;;;;;;;4.50;1.13;;;;;;;17.99;69.64;99739.81;7389487;19;20006;-68
2022/05/23 08:42:27;;;;;;;4.18;0.90;;;;;;;18.05;69.60;99747.72;7391279;19;20038;-70
2022/05/23 08:45:11;;;;;;;2.63;0.60;;;;;;;18.14;68.76;99743.69;7390661;19;20019;-69
2022/05/23 08:47:43;;;;;;;2.40;0.77;;;;;;;18.20;68.31;99748.09;7389432;19;20283;-70
2022/05/23 08:50:16;;;;;;;2.15;0.93;;;;;;;18.25;68.37;99748.22;7392061;19;20022;-67
2022/05/23 08:52:53;;;;;;;4.63;0.70;;;;;;;18.30;68.04;99742.19;7386101;19;20014;-68
2022/05/23 08:55:50;;;;;;;6.18;2.60;;;;;;;18.31;67.86;99733.16;7391868;19;20338;-69
2022/05/23 08:58:34;;;;;;;6.00;1.00;;;;;;;18.28;68.52;99738.97;7388031;19;20046;-70
2022/05/23 09:01:12;;;;;;;4.32;1.17;;;;;;;18.32;68.96;99738.28;7388939;19;20018;-70
2022/05/23 09:03:52;;;;;;;2.70;0.68;;;;;;;18.36;67.90;99734.09;7386032;19;20036;-69
2022/05/23 09:06:27;;;;;;;2.47;0.70;;;;;;;18.34;68.03;99732.69;7387199;19;20015;-70
2022/05/23 09:09:15;;;;;;;4.28;1.02;;;;;;;18.34;68.33;99735.38;7391388;19;20019;-68
2022/05/23 09:11:48;;;;;;;2.92;0.80;;;;;;;18.36;69.34;99731.44;7387598;19;20035;-71
2022/05/23 09:14:17;;;;;;;2.95;0.70;;;;;;;18.43;69.20;99735.84;7387320;19;20002;-68
2022/05/23 09:16:48;;;;;;;3.17;0.60;;;;;;;18.49;68.84;99734.94;7388304;19;20018;-68
2022/05/23 09:19:31;;;;;;;2.35;0.75;;;;;;;18.53;68.55;99731.56;7387195;19;20480;-69
2022/05/23 09:24:51;;;;;;;1.75;0.90;;;;;;;18.60;68.16;99720.81;7389867;19;20525;-68
2022/05/23 09:27:43;;;;;;;3.17;0.73;;;;;;;18.64;68.09;99712.13;7386228;19;20042;-70
2022/05/23 09:30:13;;;;;;;3.47;0.65;;;;;;;18.66;68.66;99712.69;7389524;19;20387;-69
2022/05/23 09:32:47;;;;;;;4.38;1.20;;;;;;;18.71;68.23;99712.00;7387942;19;20066;-70
2022/05/23 09:35:17;;;;;;;5.03;0.80;;;;;;;18.76;68.19;99707.59;7388768;19;20387;-68
2022/05/23 09:38:03;;;;;;;4.22;0.90;;;;;;;18.76;68.11;99712.94;7391744;19;20060;-68
2022/05/23 09:40:36;;;;;;;1.80;0.80;;;;;;;18.77;67.89;99706.56;7386612;19;20038;-68
2022/05/23 09:49:01;;;;;;;20.38;8.15;;;;;;;18.72;69.18;99701.13;7386038;19;20027;-70
2022/05/23 09:51:28;;;;;;;4.47;1.63;;;;;;;18.70;68.96;99697.88;7383579;19;20309;-67
2022/05/23 09:53:59;;;;;;;7.35;1.13;;;;;;;18.69;69.48;99698.91;7385847;19;20345;-70
2022/05/23 09:56:39;;;;;;;2.80;0.73;;;;;;;18.70;69.99;99708.53;7384890;19;20022;-68
2022/05/23 09:59:10;;;;;;;4.55;0.90;;;;;;;18.68;68.92;99702.63;7385802;19;20096;-69
2022/05/23 10:01:41;;;;;;;5.68;1.08;;;;;;;18.71;68.54;99701.34;7388943;19;20340;-69
2022/05/23 10:04:22;;;;;;;3.53;1.17;;;;;;;18.70;68.58;99700.53;7386524;19;20049;-68
2022/05/23 10:06:52;;;;;;;2.25;0.82;;;;;;;18.70;68.70;99707.72;7385065;19;20098;-67
2022/05/23 10:09:32;;;;;;;7.85;2.85;;;;;;;18.69;68.49;99703.44;7388971;19;20304;-68
2022/05/23 10:12:28;;;;;;;3.08;0.80;;;;;;;18.70;67.38;99702.38;7366327;19;20527;-69
2022/05/23 10:15:28;;;;;;;3.08;0.60;;;;;;;18.70;67.03;99699.72;7382449;19;20078;-69
2022/05/23 10:18:07;;;;;;;1.10;0.43;;;;;;;18.70;67.33;99695.19;7386778;19;20014;-68
2022/05/23 10:20:37;;;;;;;3.38;0.50;;;;;;;18.73;67.19;99697.41;7385858;19;20007;-68
2022/05/23 10:23:14;;;;;;;4.65;0.68;;;;;;;18.78;66.73;99694.84;7386801;19;20052;-69
2022/05/23 10:25:48;;;;;;;4.25;0.68;;;;;;;18.83;66.73;99699.47;7387361;19;20022;-69
2022/05/23 10:28:25;;;;;;;1.55;0.60;;;;;;;18.91;66.37;99695.63;7383374;19;20765;-70
2022/05/23 10:31:04;;;;;;;2.00;0.60;;;;;;;18.94;66.51;99685.31;7383345;19;20019;-69
2022/05/23 10:34:01;;;;;;;0.80;0.30;;;;;;;18.95;65.66;99683.44;7393273;19;20015;-68
2022/05/23 10:36:30;;;;;;;4.18;0.75;;;;;;;18.94;65.26;99685.31;7392207;19;20010;-69
2022/05/23 10:44:44;;;;;;;6.90;1.98;;;;;;;18.92;65.58;99690.06;7392307;19;20560;-69
2022/05/23 10:47:21;;;;;;;4.82;0.75;;;;;;;18.92;65.03;99689.25;7389448;19;20013;-71
2022/05/23 10:52:31;;;;;;;4.10;0.50;;;;;;;18.93;64.57;99689.03;7389697;19;20089;-69
2022/05/23 10:55:09;;;;;;;1.67;0.30;;;;;;;18.90;64.40;99678.81;7390694;19;20066;-69
2022/05/23 10:57:56;;;;;;;2.75;0.50;;;;;;;18.91;63.72;99669.78;7389173;19;20498;-70
2022/05/23 11:00:36;;;;;;;3.05;0.40;;;;;;;18.93;64.78;99664.22;7389692;19;20024;-69
2022/05/23 11:03:25;;;;;;;2.75;0.50;;;;;;;18.94;64.54;99677.31;7390940;19;20138;-68
2022/05/23 11:05:53;;;;;;;1.85;0.30;;;;;;;18.98;63.68;99667.00;7389911;19;20480;-69
2022/05/23 11:08:34;;;;;;;2.40;0.55;;;;;;;18.98;64.03;99669.66;7386801;19;20015;-70
2022/05/23 11:11:14;;;;;;;5.22;0.40;;;;;;;18.99;63.18;99672.09;7392057;19;20018;-67
2022/05/23 11:14:00;;;;;;;4.97;0.68;;;;;;;19.00;63.97;99676.34;7388476;19;20006;-68
2022/05/23 11:16:53;;;;;;;1.60;0.30;;;;;;;18.94;64.49;99672.00;7387319;19;20018;-68
2022/05/23 11:19:32;;;;;;;3.60;0.47;;;;;;;18.92;66.02;99660.75;7392559;19;20459;-69
2022/05/23 11:22:20;;;;;;;2.15;0.70;;;;;;;18.90;65.29;99665.50;7391584;19;20158;-69
2022/05/23 11:25:11;;;;;;;1.88;0.50;;;;;;;18.89;65.06;99665.75;7388460;19;20014;-68
2022/05/23 11:36:33;;;;;;;3.72;0.77;;;;;;;18.79;66.39;99661.03;7389618;19;20011;-69
2022/05/23 11:39:02;;;;;;;7.03;1.05;;;;;;;18.78;66.40;99664.72;7390658;19;20467;-68
2022/05/23 11:44:12;;;;;;;3.42;1.10;;;;;;;18.81;65.94;99661.56;7386589;19;20010;-68
2022/05/23 11:47:07;;;;;;;4.18;1.15;;;;;;;18.75;66.45;99681.16;7391066;19;20018;-70
2022/05/23 11:49:43;;;;;;;4.22;1.00;;;;;;;18.65;66.18;99672.94;7390182;19;20019;-69
2022/05/23 11:52:24;;;;;;;3.85;0.95;;;;;;;18.60;66.76;99665.66;7387696;19;20064;-69
2022/05/23 11:54:52;;;;;;;2.58;0.60;;;;;;;18.55;65.42;99670.88;7392088;19;20006;-67
2022/05/23 12:01:18;;;;;;;7.25;1.20;;;;;;;18.48;64.08;99677.34;7349920;19;20009;-69
2022/05/23 12:04:03;;;;;;;5.28;0.93;;;;;;;18.49;63.76;99679.00;7389942;19;20011;-69
2022/05/23 12:06:32;;;;;;;3.42;0.73;;;;;;;18.49;62.68;99673.66;7390043;19;20086;-70
2022/05/23 12:09:43;;;;;;;6.55;0.60;;;;;;;18.47;62.33;99676.53;7387786;19;20030;-68
2022/05/23 12:12:24;;;;;;;2.50;0.60;;;;;;;18.45;63.29;99683.94;7389835;19;20013;-69
2022/05/23 12:14:54;;;;;;;4.32;0.82;;;;;;;18.44;63.51;99676.22;7382159;19;20616;-70
2022/05/23 12:17:28;;;;;;;7.55;0.68;;;;;;;18.42;62.90;99671.09;7385595;19;20039;-69
2022/05/23 12:19:58;;;;;;;4.60;0.93;;;;;;;18.42;63.41;99672.97;7387093;19;20027;-69
2022/05/23 12:22:32;;;;;;;2.63;0.70;;;;;;;18.42;63.20;99668.44;7383825;19;20042;-69
2022/05/23 12:25:08;;;;;;;2.08;0.60;;;;;;;18.43;63.55;99674.59;7386494;19;20641;-69
2022/05/23 12:27:39;;;;;;;5.53;0.75;;;;;;;18.43;63.85;99679.91;7386411;19;20014;-69
2022/05/23 12:30:12;;;;;;;6.82;1.58;;;;;;;18.42;65.69;99680.94;7383535;19;20466;-70
2022/05/23 12:32:51;;;;;;;5.82;0.90;;;;;;;18.43;65.39;99671.91;7383387;19;20022;-69
2022/05/23 12:35:27;;;;;;;4.75;0.90;;;;;;;18.41;65.19;99671.31;7383106;19;20035;-68
2022/05/23 12:38:02;;;;;;;7.13;1.20;;;;;;;18.34;64.68;99666.91;7390735;19;20014;-67
2022/05/23 12:40:39;;;;;;;5.40;0.77;;;;;;;18.30;63.99;99667.63;7384564;19;20454;-70
2022/05/23 12:43:12;;;;;;;2.90;0.40;;;;;;;18.27;63.06;99663.59;7383131;19;20010;-69
2022/05/23 12:45:46;;;;;;;6.45;0.50;;;;;;;18.23;61.65;99653.63;7384613;19;20045;-68
2022/05/23 12:48:20;;;;;;;4.00;0.40;;;;;;;18.21;62.35;99661.03;7380819;19;20014;-69
2022/05/23 12:50:54;;;;;;;4.47;0.50;;;;;;;18.21;64.40;99651.19;7379634;19;20019;-69
2022/05/23 12:53:32;;;;;;;3.90;0.57;;;;;;;18.20;63.42;99657.53;7382183;19;20428;-69
2022/05/23 12:56:05;;;;;;;7.78;0.88;;;;;;;18.19;64.08;99658.59;7381807;19;20014;-71
2022/05/23 12:58:38;;;;;;;4.63;1.00;;;;;;;18.17;64.72;99651.88;7386157;19;20010;-70
2022/05/23 13:01:09;;;;;;;7.38;0.77;;;;;;;18.21;65.31;99661.84;7382239;19;20169;-68
2022/05/23 13:04:07;;;;;;;5.85;0.68;;;;;;;18.23;64.55;99657.09;7383170;19;20014;-69
2022/05/23 13:06:40;;;;;;;4.22;0.60;;;;;;;18.21;65.36;99653.84;7381597;19;20310;-68
2022/05/23 13:09:18;;;;;;;4.35;0.68;;;;;;;18.21;65.19;99666.34;7382938;19;20011;-69
2022/05/23 13:11:53;;;;;;;4.00;0.85;;;;;;;18.16;65.81;99656.41;7382375;19;20321;-71
2022/05/23 13:14:20;;;;;;;3.33;0.60;;;;;;;18.21;71.52;99650.38;7382668;19;20559;-69